createdAt,value
2018-03-12T00:01:20.360Z,987.62
2018-03-12T00:02:20.362Z,987.61
2018-03-12T00:04:13.432Z,987.63
2018-03-12T00:05:13.451Z,987.65
2018-03-12T00:07:06.372Z,987.62
2018-03-12T00:08:06.372Z,987.65
2018-03-12T00:09:59.449Z,987.68
2018-03-12T00:10:59.465Z,987.66
2018-03-12T00:12:52.390Z,987.70
2018-03-12T00:13:52.390Z,987.69
2018-03-12T00:15:45.288Z,987.68
2018-03-12T00:16:45.307Z,987.69
2018-03-12T00:18:38.230Z,987.73
2018-03-12T00:19:38.229Z,987.73
2018-03-12T00:21:31.167Z,987.72
2018-03-12T00:22:31.152Z,987.70
2018-03-12T00:24:24.051Z,987.69
2018-03-12T00:25:24.070Z,987.70
2018-03-12T00:27:16.991Z,987.71
2018-03-12T00:28:16.989Z,987.72
2018-03-12T00:30:09.895Z,987.68
2018-03-12T00:31:09.916Z,987.64
2018-03-12T00:33:02.832Z,987.63
2018-03-12T00:34:02.832Z,987.67
2018-03-12T00:35:55.732Z,987.62
2018-03-12T00:36:55.750Z,987.61
2018-03-12T00:38:48.674Z,987.60
2018-03-12T00:39:48.674Z,987.55
2018-03-12T00:41:41.571Z,987.54
2018-03-12T00:42:41.591Z,987.52
2018-03-12T00:44:34.510Z,987.44
2018-03-12T00:45:34.510Z,987.43
2018-03-12T00:47:27.427Z,987.40
2018-03-12T00:48:27.448Z,987.40
2018-03-12T00:50:20.328Z,987.47
2018-03-12T00:51:20.344Z,987.46
2018-03-12T00:53:13.268Z,987.45
2018-03-12T00:54:13.270Z,987.44
2018-03-12T00:56:06.170Z,987.43
2018-03-12T00:57:06.187Z,987.41
2018-03-12T00:58:59.103Z,987.36
2018-03-12T00:59:59.104Z,987.35
2018-03-12T01:01:52.002Z,987.31
2018-03-12T01:02:52.021Z,987.26
2018-03-12T01:04:44.946Z,987.33
2018-03-12T01:05:44.946Z,987.29
2018-03-12T01:07:37.848Z,987.36
2018-03-12T01:08:37.865Z,987.32
2018-03-12T01:10:30.784Z,987.34
2018-03-12T01:11:30.783Z,987.29
2018-03-12T01:13:23.732Z,987.33
2018-03-12T01:14:23.705Z,987.31
2018-03-12T01:16:16.607Z,987.24
2018-03-12T01:17:16.624Z,987.20
2018-03-12T01:19:09.542Z,987.15
2018-03-12T01:20:09.542Z,987.10
2018-03-12T01:22:02.443Z,987.10
2018-03-12T01:23:02.461Z,987.07
2018-03-12T01:24:55.382Z,987.05
2018-03-12T01:25:55.382Z,987.10
2018-03-12T01:27:48.283Z,987.03
2018-03-12T01:28:48.300Z,987.04
2018-03-12T01:30:41.222Z,987.04
2018-03-12T01:31:41.223Z,987.02
2018-03-12T01:33:34.126Z,987.00
2018-03-12T01:34:34.141Z,986.99
2018-03-12T01:36:27.061Z,986.97
2018-03-12T01:37:27.061Z,986.95
2018-03-12T01:39:19.983Z,986.97
2018-03-12T01:40:19.981Z,986.95
2018-03-12T01:42:12.882Z,986.93
2018-03-12T01:43:12.901Z,986.94
2018-03-12T01:45:05.823Z,986.94
2018-03-12T01:46:05.822Z,986.91
2018-03-12T01:47:58.729Z,986.92
2018-03-12T01:48:58.749Z,986.92
2018-03-12T01:50:51.668Z,986.92
2018-03-12T01:51:51.671Z,986.90
2018-03-12T01:53:44.570Z,986.88
2018-03-12T01:54:44.587Z,986.90
2018-03-12T01:56:37.505Z,986.84
2018-03-12T01:57:37.525Z,986.86
2018-03-12T01:59:30.407Z,986.79
2018-03-12T02:00:30.423Z,986.80
2018-03-12T02:02:23.344Z,986.77
2018-03-12T02:03:23.344Z,986.79
2018-03-12T02:05:16.264Z,986.71
2018-03-12T02:06:16.265Z,986.74
2018-03-12T02:08:09.168Z,986.79
2018-03-12T02:09:09.183Z,986.78
2018-03-12T02:11:02.105Z,986.84
2018-03-12T02:12:02.101Z,986.85
2018-03-12T02:13:55.002Z,986.90
2018-03-12T02:14:55.016Z,986.89
2018-03-12T02:16:47.934Z,986.85
2018-03-12T02:17:47.936Z,986.86
2018-03-12T02:19:40.832Z,986.84
2018-03-12T02:20:40.850Z,986.87
2018-03-12T02:22:33.768Z,986.85
2018-03-12T02:23:33.765Z,986.83
2018-03-12T02:25:26.665Z,986.82
2018-03-12T02:26:26.683Z,986.83
2018-03-12T02:28:19.603Z,986.80
2018-03-12T02:29:19.604Z,986.82
2018-03-12T02:31:12.517Z,986.81
2018-03-12T02:32:12.517Z,986.79
2018-03-12T02:34:05.428Z,986.77
2018-03-12T02:35:05.447Z,986.75
2018-03-12T02:36:58.362Z,986.76
2018-03-12T02:37:58.364Z,986.75
2018-03-12T02:39:51.264Z,986.74
2018-03-12T02:40:51.309Z,986.74
2018-03-12T02:42:44.210Z,986.72
2018-03-12T02:43:44.206Z,986.71
2018-03-12T02:45:37.103Z,986.72
2018-03-12T02:46:37.120Z,986.70
2018-03-12T02:48:30.049Z,986.65
2018-03-12T02:49:30.046Z,986.68
2018-03-12T02:51:22.984Z,986.65
2018-03-12T02:52:22.963Z,986.66
2018-03-12T02:54:15.867Z,986.63
2018-03-12T02:55:15.892Z,986.65
2018-03-12T02:57:08.802Z,986.64
2018-03-12T02:58:08.798Z,986.67
2018-03-12T03:00:01.703Z,986.64
2018-03-12T03:01:01.720Z,986.59
2018-03-12T03:02:54.642Z,986.61
2018-03-12T03:03:54.643Z,986.57
2018-03-12T03:05:47.542Z,986.57
2018-03-12T03:06:47.558Z,986.59
2018-03-12T03:08:40.476Z,986.55
2018-03-12T03:09:40.474Z,986.54
2018-03-12T03:11:33.373Z,986.59
2018-03-12T03:12:33.389Z,986.58
2018-03-12T03:14:26.306Z,986.58
2018-03-12T03:15:26.304Z,986.58
2018-03-12T03:17:19.204Z,986.58
2018-03-12T03:18:19.241Z,986.55
2018-03-12T03:20:12.166Z,986.56
2018-03-12T03:21:12.148Z,986.58
2018-03-12T03:23:05.244Z,986.58
2018-03-12T03:24:05.241Z,986.56
2018-03-12T03:25:58.140Z,986.49
2018-03-12T03:26:58.158Z,986.52
2018-03-12T03:28:51.077Z,986.52
2018-03-12T03:29:51.073Z,986.48
2018-03-12T03:31:43.976Z,986.46
2018-03-12T03:32:43.991Z,986.45
2018-03-12T03:34:36.905Z,986.46
2018-03-12T03:35:36.906Z,986.43
2018-03-12T03:37:29.804Z,986.40
2018-03-12T03:38:29.822Z,986.41
2018-03-12T03:40:22.738Z,986.40
2018-03-12T03:41:22.741Z,986.36
2018-03-12T03:43:15.653Z,986.35
2018-03-12T03:44:15.653Z,986.35
2018-03-12T03:46:08.550Z,986.37
2018-03-12T03:47:08.569Z,986.35
2018-03-12T03:49:01.522Z,986.41
2018-03-12T03:50:01.485Z,986.44
2018-03-12T03:51:54.383Z,986.41
2018-03-12T03:52:54.400Z,986.40
2018-03-12T03:54:47.319Z,986.42
2018-03-12T03:55:47.320Z,986.40
2018-03-12T03:57:40.380Z,986.41
2018-03-12T03:58:40.444Z,986.40
2018-03-12T04:00:33.315Z,986.37
2018-03-12T04:01:33.326Z,986.35
2018-03-12T04:03:26.213Z,986.34
2018-03-12T04:04:26.228Z,986.31
2018-03-12T04:06:19.152Z,986.34
2018-03-12T04:07:19.145Z,986.30
2018-03-12T04:09:12.047Z,986.28
2018-03-12T04:10:12.063Z,986.27
2018-03-12T04:12:04.982Z,986.28
2018-03-12T04:13:04.983Z,986.30
2018-03-12T04:14:57.901Z,986.30
2018-03-12T04:15:57.903Z,986.32
2018-03-12T04:17:50.800Z,986.31
2018-03-12T04:18:50.817Z,986.37
2018-03-12T04:20:43.917Z,986.35
2018-03-12T04:21:43.917Z,986.33
2018-03-12T04:23:36.816Z,986.33
2018-03-12T04:24:36.833Z,986.31
2018-03-12T04:26:29.747Z,986.32
2018-03-12T04:27:29.745Z,986.30
2018-03-12T04:29:22.646Z,986.29
2018-03-12T04:30:22.661Z,986.30
2018-03-12T04:32:15.578Z,986.28
2018-03-12T04:33:15.578Z,986.28
2018-03-12T04:35:08.475Z,986.31
2018-03-12T04:36:08.494Z,986.32
2018-03-12T04:38:01.420Z,986.33
2018-03-12T04:39:01.412Z,986.31
2018-03-12T04:40:54.328Z,986.35
2018-03-12T04:41:54.326Z,986.35
2018-03-12T04:43:47.225Z,986.39
2018-03-12T04:44:47.322Z,986.38
2018-03-12T04:46:40.167Z,986.40
2018-03-12T04:47:40.170Z,986.43
2018-03-12T04:49:33.064Z,986.44
2018-03-12T04:50:33.082Z,986.45
2018-03-12T04:52:26.009Z,986.46
2018-03-12T04:53:26.007Z,986.46
2018-03-12T04:55:18.910Z,986.44
2018-03-12T04:56:18.926Z,986.44
2018-03-12T04:58:11.842Z,986.40
2018-03-12T04:59:11.855Z,986.41
2018-03-12T05:01:04.777Z,986.40
2018-03-12T05:02:04.760Z,986.46
2018-03-12T05:03:57.661Z,986.46
2018-03-12T05:04:57.677Z,986.42
2018-03-12T05:06:50.623Z,986.44
2018-03-12T05:07:50.615Z,986.40
2018-03-12T05:09:43.524Z,986.45
2018-03-12T05:10:43.599Z,986.44
2018-03-12T05:12:36.441Z,986.38
2018-03-12T05:13:36.464Z,986.41
2018-03-12T05:15:29.334Z,986.40
2018-03-12T05:16:29.353Z,986.39
2018-03-12T05:18:22.272Z,986.39
2018-03-12T05:19:22.271Z,986.39
2018-03-12T05:21:15.173Z,986.42
2018-03-12T05:22:15.188Z,986.41
2018-03-12T05:24:08.110Z,986.43
2018-03-12T05:25:08.115Z,986.40
2018-03-12T05:27:01.030Z,986.40
2018-03-12T05:28:01.028Z,986.41
2018-03-12T05:29:53.924Z,986.45
2018-03-12T05:30:53.943Z,986.42
2018-03-12T05:32:46.861Z,986.47
2018-03-12T05:33:46.861Z,986.50
2018-03-12T05:35:39.837Z,986.50
2018-03-12T05:36:39.780Z,986.56
2018-03-12T05:38:32.693Z,986.52
2018-03-12T05:39:32.692Z,986.57
2018-03-12T05:41:25.588Z,986.61
2018-03-12T05:42:25.632Z,986.63
2018-03-12T05:44:18.537Z,986.59
2018-03-12T05:45:18.532Z,986.60
2018-03-12T05:47:11.435Z,986.64
2018-03-12T05:48:11.448Z,986.68
2018-03-12T05:50:04.365Z,986.70
2018-03-12T05:51:04.365Z,986.69
2018-03-12T05:52:57.290Z,986.71
2018-03-12T05:53:57.288Z,986.73
2018-03-12T05:55:50.191Z,986.74
2018-03-12T05:56:50.203Z,986.79
2018-03-12T05:58:43.125Z,986.79
2018-03-12T05:59:43.121Z,986.79
2018-03-12T06:01:36.026Z,986.79
2018-03-12T06:02:36.045Z,986.81
2018-03-12T06:04:28.962Z,986.79
2018-03-12T06:05:28.964Z,986.79
2018-03-12T06:07:21.868Z,986.77
2018-03-12T06:08:21.883Z,986.81
2018-03-12T06:10:14.802Z,986.75
2018-03-12T06:11:14.803Z,986.78
2018-03-12T06:13:07.701Z,986.74
2018-03-12T06:14:07.720Z,986.76
2018-03-12T06:16:00.640Z,986.76
2018-03-12T06:17:00.637Z,986.76
2018-03-12T06:18:53.538Z,986.72
2018-03-12T06:19:53.554Z,986.74
2018-03-12T06:21:46.473Z,986.74
2018-03-12T06:22:46.472Z,986.70
2018-03-12T06:24:39.370Z,986.69
2018-03-12T06:25:39.389Z,986.65
2018-03-12T06:27:32.309Z,986.68
2018-03-12T06:28:32.308Z,986.70
2018-03-12T06:30:25.226Z,986.69
2018-03-12T06:31:25.223Z,986.64
2018-03-12T06:33:18.124Z,986.65
2018-03-12T06:34:18.143Z,986.65
2018-03-12T06:36:11.060Z,986.60
2018-03-12T06:37:11.096Z,986.63
2018-03-12T06:39:03.961Z,986.61
2018-03-12T06:40:03.980Z,986.59
2018-03-12T06:41:56.899Z,986.59
2018-03-12T06:42:56.900Z,986.63
2018-03-12T06:44:49.797Z,986.58
2018-03-12T06:45:49.816Z,986.59
2018-03-12T06:47:42.737Z,986.61
2018-03-12T06:48:42.737Z,986.62
2018-03-12T06:50:35.662Z,986.63
2018-03-12T06:51:35.663Z,986.60
2018-03-12T06:53:28.570Z,986.61
2018-03-12T06:54:28.586Z,986.61
2018-03-12T06:56:21.514Z,986.62
2018-03-12T06:57:21.513Z,986.62
2018-03-12T06:59:14.416Z,986.63
2018-03-12T07:00:14.431Z,986.65
2018-03-12T07:02:07.357Z,986.65
2018-03-12T07:03:07.353Z,986.66
2018-03-12T07:05:00.258Z,986.63
2018-03-12T07:06:00.278Z,986.66
2018-03-12T07:07:53.231Z,986.64
2018-03-12T07:08:53.199Z,986.63
2018-03-12T07:10:46.154Z,986.66
2018-03-12T07:11:46.156Z,986.67
2018-03-12T07:13:39.560Z,986.67
2018-03-12T07:14:39.580Z,986.66
2018-03-12T07:16:32.511Z,986.70
2018-03-12T07:17:32.518Z,986.65
2018-03-12T07:19:25.417Z,986.65
2018-03-12T07:20:25.436Z,986.68
2018-03-12T07:22:18.361Z,986.68
2018-03-12T07:23:18.362Z,986.69
2018-03-12T07:25:11.273Z,986.70
2018-03-12T07:26:11.294Z,986.71
2018-03-12T07:28:04.217Z,986.74
2018-03-12T07:29:04.223Z,986.73
2018-03-12T07:30:57.147Z,986.76
2018-03-12T07:31:57.146Z,986.74
2018-03-12T07:33:50.059Z,986.70
2018-03-12T07:34:50.079Z,986.76
2018-03-12T07:36:43.006Z,986.79
2018-03-12T07:37:43.008Z,986.79
2018-03-12T07:39:35.916Z,986.78
2018-03-12T07:40:35.934Z,986.78
2018-03-12T07:42:28.865Z,986.80
2018-03-12T07:43:28.862Z,986.79
2018-03-12T07:45:21.774Z,986.81
2018-03-12T07:46:21.796Z,986.86
2018-03-12T07:48:14.772Z,986.90
2018-03-12T07:49:14.762Z,986.89
2018-03-12T07:51:07.714Z,986.95
2018-03-12T07:52:07.715Z,986.93
2018-03-12T07:54:00.653Z,986.94
2018-03-12T07:55:00.671Z,986.92
2018-03-12T07:56:53.624Z,986.97
2018-03-12T07:57:53.626Z,986.96
2018-03-12T07:59:46.563Z,986.95
2018-03-12T08:00:46.578Z,987.00
2018-03-12T08:02:39.532Z,986.97
2018-03-12T08:03:39.629Z,986.96
2018-03-12T08:05:32.470Z,987.01
2018-03-12T08:06:32.488Z,986.96
2018-03-12T08:08:25.439Z,987.02
2018-03-12T08:09:25.442Z,987.01
2018-03-12T08:11:18.392Z,987.02
2018-03-12T08:12:18.396Z,987.07
2018-03-12T08:14:11.333Z,987.06
2018-03-12T08:15:11.350Z,987.06
2018-03-12T08:17:04.305Z,987.09
2018-03-12T08:18:04.308Z,987.08
2018-03-12T08:20:07.211Z,987.10
2018-03-12T08:21:07.232Z,987.09
2018-03-12T08:23:00.159Z,987.13
2018-03-12T08:24:00.172Z,987.10
2018-03-12T08:25:53.062Z,987.09
2018-03-12T08:26:53.084Z,987.13
2018-03-12T08:28:46.004Z,987.15
2018-03-12T08:29:46.006Z,987.12
2018-03-12T08:31:38.929Z,987.14
2018-03-12T08:32:38.930Z,987.17
2018-03-12T08:34:31.841Z,987.15
2018-03-12T08:35:31.881Z,987.19
2018-03-12T08:37:24.785Z,987.18
2018-03-12T08:38:24.784Z,987.19
2018-03-12T08:40:17.687Z,987.18
2018-03-12T08:41:17.708Z,987.19
2018-03-12T08:43:10.630Z,987.22
2018-03-12T08:44:10.632Z,987.22
2018-03-12T08:46:03.536Z,987.23
2018-03-12T08:47:03.556Z,987.23
2018-03-12T08:48:56.481Z,987.26
2018-03-12T08:49:56.483Z,987.25
2018-03-12T08:51:49.410Z,987.20
2018-03-12T08:52:49.414Z,987.25
2018-03-12T08:54:42.321Z,987.25
2018-03-12T08:55:42.342Z,987.27
2018-03-12T08:57:35.265Z,987.27
2018-03-12T08:58:35.270Z,987.28
2018-03-12T09:00:28.174Z,987.29
2018-03-12T09:01:28.195Z,987.27
2018-03-12T09:03:21.121Z,987.29
2018-03-12T09:04:21.140Z,987.24
2018-03-12T09:06:14.033Z,987.24
2018-03-12T09:07:14.053Z,987.28
2018-03-12T09:09:06.982Z,987.27
2018-03-12T09:10:06.983Z,987.25
2018-03-12T09:11:59.911Z,987.27
2018-03-12T09:12:59.912Z,987.26
2018-03-12T09:14:52.820Z,987.29
2018-03-12T09:15:52.888Z,987.30
2018-03-12T09:17:45.765Z,987.28
2018-03-12T09:18:45.857Z,987.29
2018-03-12T09:20:38.679Z,987.28
2018-03-12T09:21:38.699Z,987.27
2018-03-12T09:23:31.625Z,987.20
2018-03-12T09:24:31.691Z,987.23
2018-03-12T09:26:24.539Z,987.24
2018-03-12T09:27:24.560Z,987.22
2018-03-12T09:29:17.485Z,987.23
2018-03-12T09:30:17.489Z,987.23
2018-03-12T09:32:10.415Z,987.22
2018-03-12T09:33:10.470Z,987.21
2018-03-12T09:35:03.323Z,987.22
2018-03-12T09:36:03.345Z,987.20
2018-03-12T09:37:56.275Z,987.18
2018-03-12T09:38:56.310Z,987.20
2018-03-12T09:40:49.185Z,987.22
2018-03-12T09:41:49.206Z,987.23
2018-03-12T09:43:42.134Z,987.26
2018-03-12T09:44:42.156Z,987.26
2018-03-12T09:46:35.044Z,987.26
2018-03-12T09:47:35.065Z,987.20
2018-03-12T09:49:27.994Z,987.24
2018-03-12T09:50:27.997Z,987.22
2018-03-12T09:52:20.924Z,987.21
2018-03-12T09:53:20.927Z,987.24
2018-03-12T09:55:13.832Z,987.24
2018-03-12T09:56:13.856Z,987.23
2018-03-12T09:58:06.790Z,987.21
2018-03-12T09:59:06.798Z,987.25
2018-03-12T10:01:00.270Z,987.25
2018-03-12T10:01:59.804Z,987.21
2018-03-12T10:03:52.734Z,987.27
2018-03-12T10:04:52.736Z,987.24
2018-03-12T10:06:45.649Z,987.23
2018-03-12T10:07:45.667Z,987.24
2018-03-12T10:09:38.601Z,987.28
2018-03-12T10:10:38.607Z,987.28
2018-03-12T10:12:31.533Z,987.27
2018-03-12T10:13:31.535Z,987.28
2018-03-12T10:15:24.455Z,987.27
2018-03-12T10:16:24.483Z,987.26
2018-03-12T10:18:17.406Z,987.30
2018-03-12T10:19:17.412Z,987.31
2018-03-12T10:21:10.327Z,987.31
2018-03-12T10:22:10.355Z,987.34
2018-03-12T10:24:03.283Z,987.31
2018-03-12T10:25:03.283Z,987.32
2018-03-12T10:26:56.200Z,987.32
2018-03-12T10:27:56.217Z,987.26
2018-03-12T10:29:49.149Z,987.31
2018-03-12T10:30:49.175Z,987.33
2018-03-12T10:32:42.084Z,987.32
2018-03-12T10:33:42.089Z,987.31
2018-03-12T10:35:35.000Z,987.31
2018-03-12T10:36:35.035Z,987.33
2018-03-12T10:38:27.954Z,987.32
2018-03-12T10:39:28.055Z,987.31
2018-03-12T10:41:20.903Z,987.32
2018-03-12T10:42:20.913Z,987.36
2018-03-12T10:44:13.857Z,987.38
2018-03-12T10:45:13.867Z,987.37
2018-03-12T10:47:06.783Z,987.40
2018-03-12T10:48:06.806Z,987.40
2018-03-12T10:49:59.742Z,987.42
2018-03-12T10:50:59.743Z,987.43
2018-03-12T10:52:52.673Z,987.45
2018-03-12T10:53:52.680Z,987.48
2018-03-12T10:55:45.597Z,987.46
2018-03-12T10:56:45.622Z,987.44
2018-03-12T10:58:38.551Z,987.48
2018-03-12T10:59:38.599Z,987.45
2018-03-12T11:01:31.471Z,987.43
2018-03-12T11:02:31.492Z,987.46
2018-03-12T11:04:24.438Z,987.48
2018-03-12T11:05:24.439Z,987.45
2018-03-12T11:07:17.359Z,987.44
2018-03-12T11:08:17.383Z,987.41
2018-03-12T11:10:10.316Z,987.42
2018-03-12T11:11:10.357Z,987.39
2018-03-12T11:13:03.255Z,987.39
2018-03-12T11:14:03.259Z,987.40
2018-03-12T11:15:56.169Z,987.38
2018-03-12T11:16:56.194Z,987.43
2018-03-12T11:18:49.128Z,987.43
2018-03-12T11:19:49.130Z,987.42
2018-03-12T11:21:42.044Z,987.41
2018-03-12T11:22:42.068Z,987.40
2018-03-12T11:24:35.004Z,987.39
2018-03-12T11:25:35.020Z,987.38
2018-03-12T11:27:27.927Z,987.34
2018-03-12T11:28:27.955Z,987.36
2018-03-12T11:30:20.886Z,987.32
2018-03-12T11:31:20.891Z,987.35
2018-03-12T11:33:13.823Z,987.40
2018-03-12T11:34:13.829Z,987.40
2018-03-12T11:36:06.743Z,987.40
2018-03-12T11:37:06.767Z,987.40
2018-03-12T11:38:59.704Z,987.42
2018-03-12T11:39:59.709Z,987.40
2018-03-12T11:41:52.620Z,987.38
2018-03-12T11:42:52.642Z,987.37
2018-03-12T11:44:45.580Z,987.32
2018-03-12T11:45:45.587Z,987.33
2018-03-12T11:47:38.497Z,987.36
2018-03-12T11:48:38.522Z,987.33
2018-03-12T11:50:31.454Z,987.34
2018-03-12T11:51:31.458Z,987.33
2018-03-12T11:53:24.421Z,987.33
2018-03-12T11:54:24.396Z,987.34
2018-03-12T11:56:17.308Z,987.36
2018-03-12T11:57:17.332Z,987.34
2018-03-12T11:59:10.267Z,987.36
2018-03-12T12:00:10.265Z,987.36
2018-03-12T12:02:03.184Z,987.33
2018-03-12T12:03:03.208Z,987.32
2018-03-12T12:04:56.139Z,987.28
2018-03-12T12:05:56.144Z,987.28
2018-03-12T12:07:49.058Z,987.27
2018-03-12T12:08:49.081Z,987.23
2018-03-12T12:10:42.019Z,987.23
2018-03-12T12:11:42.027Z,987.20
2018-03-12T12:13:35.026Z,987.17
2018-03-12T12:14:34.994Z,987.20
2018-03-12T12:16:27.907Z,987.19
2018-03-12T12:17:27.934Z,987.15
2018-03-12T12:19:20.865Z,987.16
2018-03-12T12:20:20.937Z,987.17
2018-03-12T12:22:13.897Z,987.08
2018-03-12T12:23:13.846Z,987.08
2018-03-12T12:25:06.780Z,987.09
2018-03-12T12:26:06.799Z,987.02
2018-03-12T12:27:59.705Z,987.08
2018-03-12T12:28:59.732Z,987.08
2018-03-12T12:30:52.665Z,987.07
2018-03-12T12:31:52.673Z,987.06
2018-03-12T12:33:45.607Z,987.03
2018-03-12T12:34:45.613Z,987.03
2018-03-12T12:36:38.528Z,987.01
2018-03-12T12:37:38.557Z,987.01
2018-03-12T12:39:31.489Z,986.98
2018-03-12T12:40:31.501Z,986.99
2018-03-12T12:42:24.413Z,986.98
2018-03-12T12:43:24.437Z,986.96
2018-03-12T12:45:17.384Z,986.99
2018-03-12T12:46:17.390Z,986.97
2018-03-12T12:48:10.303Z,986.95
2018-03-12T12:49:10.332Z,986.91
2018-03-12T12:51:03.436Z,986.93
2018-03-12T12:52:03.444Z,986.94
2018-03-12T12:53:56.384Z,986.95
2018-03-12T12:54:56.394Z,986.93
2018-03-12T12:56:49.309Z,986.94
2018-03-12T12:57:49.339Z,986.93
2018-03-12T12:59:42.289Z,986.90
2018-03-12T13:00:42.294Z,986.89
2018-03-12T13:02:35.217Z,986.86
2018-03-12T13:03:35.242Z,986.88
2018-03-12T13:05:28.217Z,986.89
2018-03-12T13:06:28.220Z,986.89
2018-03-12T13:08:21.142Z,986.82
2018-03-12T13:09:21.168Z,986.80
2018-03-12T13:11:14.110Z,986.83
2018-03-12T13:12:14.118Z,986.83
2018-03-12T13:14:07.057Z,986.77
2018-03-12T13:15:07.069Z,986.77
2018-03-12T13:17:00.023Z,986.79
2018-03-12T13:18:00.040Z,986.76
2018-03-12T13:19:52.970Z,986.76
2018-03-12T13:20:52.980Z,986.77
2018-03-12T13:22:45.934Z,986.81
2018-03-12T13:23:45.959Z,986.82
2018-03-12T13:25:39.005Z,986.78
2018-03-12T13:26:39.014Z,986.78
2018-03-12T13:28:33.484Z,986.82
2018-03-12T13:29:33.512Z,986.78
2018-03-12T13:31:26.553Z,986.78
2018-03-12T13:32:26.561Z,986.78
2018-03-12T13:34:20.024Z,986.75
2018-03-12T13:35:20.033Z,986.82
2018-03-12T13:37:13.468Z,986.77
2018-03-12T13:38:13.496Z,986.80
2018-03-12T13:40:06.957Z,986.80
2018-03-12T13:41:06.963Z,986.80
2018-03-12T13:42:59.884Z,986.76
2018-03-12T13:43:59.914Z,986.79
2018-03-12T13:45:52.849Z,986.81
2018-03-12T13:46:52.900Z,986.80
2018-03-12T13:48:45.779Z,986.76
2018-03-12T13:49:45.806Z,986.74
2018-03-12T13:51:38.740Z,986.76
2018-03-12T13:52:38.791Z,986.73
2018-03-12T13:54:31.698Z,986.76
2018-03-12T13:55:31.705Z,986.76
2018-03-12T13:57:24.627Z,986.77
2018-03-12T13:58:24.653Z,986.75
2018-03-12T14:00:17.648Z,986.74
2018-03-12T14:01:17.601Z,986.73
2018-03-12T14:03:10.524Z,986.74
2018-03-12T14:04:10.549Z,986.75
2018-03-12T14:06:03.979Z,986.77
2018-03-12T14:07:03.991Z,986.74
2018-03-12T14:08:57.034Z,986.76
2018-03-12T14:09:56.984Z,986.71
2018-03-12T14:11:49.872Z,986.75
2018-03-12T14:12:49.884Z,986.73
2018-03-12T14:14:43.311Z,986.75
2018-03-12T14:15:43.316Z,986.73
2018-03-12T14:17:36.733Z,986.70
2018-03-12T14:18:36.759Z,986.66
2018-03-12T14:20:29.700Z,986.66
2018-03-12T14:21:29.704Z,986.68
2018-03-12T14:23:23.116Z,986.67
2018-03-12T14:24:23.142Z,986.68
2018-03-12T14:26:16.078Z,986.68
2018-03-12T14:27:16.088Z,986.69
2018-03-12T14:29:09.009Z,986.67
2018-03-12T14:30:09.035Z,986.72
2018-03-12T14:32:01.970Z,986.70
2018-03-12T14:33:01.981Z,986.71
2018-03-12T14:34:54.923Z,986.65
2018-03-12T14:35:54.930Z,986.71
2018-03-12T14:37:47.920Z,986.65
2018-03-12T14:38:47.944Z,986.67
2018-03-12T14:40:40.900Z,986.60
2018-03-12T14:41:40.890Z,986.62
2018-03-12T14:43:33.810Z,986.63
2018-03-12T14:44:33.838Z,986.62
2018-03-12T14:46:26.778Z,986.63
2018-03-12T14:47:26.784Z,986.59
2018-03-12T14:49:19.717Z,986.60
2018-03-12T14:50:19.778Z,986.57
2018-03-12T14:52:13.261Z,986.57
2018-03-12T14:53:13.258Z,986.58
2018-03-12T14:55:06.197Z,986.56
2018-03-12T14:56:06.204Z,986.57
2018-03-12T14:57:59.122Z,986.55
2018-03-12T14:58:59.150Z,986.55
2018-03-12T15:00:52.083Z,986.56
2018-03-12T15:01:52.092Z,986.52
2018-03-12T15:03:45.011Z,986.57
2018-03-12T15:04:45.037Z,986.58
2018-03-12T15:06:37.973Z,986.56
2018-03-12T15:07:37.989Z,986.59
2018-03-12T15:09:30.928Z,986.53
2018-03-12T15:10:30.951Z,986.56
2018-03-12T15:12:23.941Z,986.58
2018-03-12T15:13:23.889Z,986.57
2018-03-12T15:15:17.319Z,986.57
2018-03-12T15:16:17.327Z,986.58
2018-03-12T15:18:10.247Z,986.58
2018-03-12T15:19:10.265Z,986.60
2018-03-12T15:21:03.203Z,986.60
2018-03-12T15:22:03.265Z,986.58
2018-03-12T15:23:56.133Z,986.60
2018-03-12T15:24:56.157Z,986.55
2018-03-12T15:26:49.090Z,986.50
2018-03-12T15:27:49.094Z,986.55
2018-03-12T15:29:42.010Z,986.54
2018-03-12T15:30:42.041Z,986.57
2018-03-12T15:32:34.970Z,986.57
2018-03-12T15:33:34.991Z,986.60
2018-03-12T15:35:27.895Z,986.53
2018-03-12T15:36:27.921Z,986.59
2018-03-12T15:38:20.853Z,986.59
2018-03-12T15:39:20.862Z,986.56
2018-03-12T15:41:13.805Z,986.58
2018-03-12T15:42:13.810Z,986.58
2018-03-12T15:44:06.725Z,986.58
2018-03-12T15:45:06.756Z,986.58
2018-03-12T15:46:59.689Z,986.57
2018-03-12T15:47:59.696Z,986.58
2018-03-12T15:49:52.615Z,986.56
2018-03-12T15:50:52.640Z,986.57
2018-03-12T15:52:45.581Z,986.59
2018-03-12T15:53:45.588Z,986.60
2018-03-12T15:55:38.508Z,986.57
2018-03-12T15:56:38.534Z,986.58
2018-03-12T15:58:31.961Z,986.60
2018-03-12T15:59:31.969Z,986.62
2018-03-12T16:01:24.964Z,986.60
2018-03-12T16:02:24.979Z,986.65
2018-03-12T16:04:17.924Z,986.65
2018-03-12T16:05:17.923Z,986.66
2018-03-12T16:07:10.867Z,986.65
2018-03-12T16:08:10.870Z,986.68
2018-03-12T16:10:03.828Z,986.66
2018-03-12T16:11:03.850Z,986.65
2018-03-12T16:12:57.312Z,986.69
2018-03-12T16:13:57.319Z,986.68
2018-03-12T16:15:50.252Z,986.71
2018-03-12T16:16:50.274Z,986.67
2018-03-12T16:18:44.331Z,986.68
2018-03-12T16:19:44.330Z,986.70
2018-03-12T16:21:37.299Z,986.66
2018-03-12T16:22:37.305Z,986.68
2018-03-12T16:24:30.254Z,986.72
2018-03-12T16:25:30.259Z,986.72
2018-03-12T16:27:23.307Z,986.72
2018-03-12T16:28:23.276Z,986.71
2018-03-12T16:30:16.163Z,986.67
2018-03-12T16:31:16.174Z,986.71
2018-03-12T16:33:09.174Z,986.69
2018-03-12T16:34:09.154Z,986.74
2018-03-12T16:36:02.196Z,986.73
2018-03-12T16:37:02.244Z,986.76
2018-03-12T16:38:55.228Z,986.78
2018-03-12T16:39:55.197Z,986.78
2018-03-12T16:41:48.115Z,986.80
2018-03-12T16:42:48.106Z,986.84
2018-03-12T16:44:41.139Z,986.85
2018-03-12T16:45:41.081Z,986.89
2018-03-12T16:47:34.654Z,986.87
2018-03-12T16:48:34.559Z,986.86
2018-03-12T16:50:27.500Z,986.92
2018-03-12T16:51:27.526Z,986.93
2018-03-12T16:53:20.475Z,986.97
2018-03-12T16:54:20.437Z,986.99
2018-03-12T16:56:13.493Z,987.01
2018-03-12T16:57:13.538Z,987.01
2018-03-12T16:59:06.985Z,986.99
2018-03-12T17:00:06.976Z,987.00
2018-03-12T17:01:59.949Z,987.01
2018-03-12T17:02:59.954Z,986.98
2018-03-12T17:04:52.952Z,987.07
2018-03-12T17:05:52.848Z,987.06
2018-03-12T17:07:46.872Z,987.03
2018-03-12T17:08:45.842Z,987.03
2018-03-12T17:10:38.795Z,987.06
2018-03-12T17:11:39.272Z,987.07
2018-03-12T17:13:31.729Z,987.04
2018-03-12T17:14:31.737Z,987.05
2018-03-12T17:16:24.704Z,987.07
2018-03-12T17:17:24.681Z,987.05
2018-03-12T17:19:17.613Z,987.10
2018-03-12T17:20:17.619Z,987.11
2018-03-12T17:22:10.548Z,987.15
2018-03-12T17:23:10.572Z,987.17
2018-03-12T17:25:03.519Z,987.20
2018-03-12T17:26:03.525Z,987.20
2018-03-12T17:27:56.477Z,987.24
2018-03-12T17:28:56.479Z,987.23
2018-03-12T17:30:49.414Z,987.24
2018-03-12T17:31:49.435Z,987.27
2018-03-12T17:33:42.384Z,987.29
2018-03-12T17:34:42.388Z,987.28
2018-03-12T17:36:36.855Z,987.29
2018-03-12T17:37:36.880Z,987.35
2018-03-12T17:39:29.829Z,987.34
2018-03-12T17:40:29.833Z,987.35
2018-03-12T17:42:22.763Z,987.34
2018-03-12T17:43:22.785Z,987.36
2018-03-12T17:45:15.734Z,987.37
2018-03-12T17:46:15.743Z,987.39
2018-03-12T17:48:08.702Z,987.40
2018-03-12T17:49:08.693Z,987.47
2018-03-12T17:51:02.137Z,987.59
2018-03-12T17:52:02.158Z,987.48
2018-03-12T17:53:55.107Z,987.60
2018-03-12T17:54:55.112Z,987.62
2018-03-12T17:56:48.046Z,987.63
2018-03-12T17:57:48.068Z,987.68
2018-03-12T17:59:41.016Z,987.65